London Gatwick, United Kingdom

7:31 AM BST on June 02, 2015 (GMT +0100)
Gatwick | | Change Station
CLOSE
Current Station
Airport
Location: London Gatwick,
Elevation: 203 ft
Nearby Weather Stations

Elev 203 ft 51.15 °N, 0.19 °W | Updated 11 minutes ago

Rain
Rain
55 °F
Feels Like 55 °F
N
16
Wind Variable Wind from SW

Today
High -- | Low -- °F
--% Chance of Precip.
Yesterday
High -- | Low -- °F
Precip. -- in
4:50 AM 9:07 PM
Full, 100% visible
Pressure 29.62 in
Visibility -9999.0 miles
Clouds Mostly Cloudy 500 ft
Dew Point 55 °F
Humidity 100%
Rainfall 0.00 in
Snow Depth Not available.
UV 1 out of 12
Pollen Not available.
Air Quality Not available.
Flu Activity Not available.
METAR EGKK 020620Z 22014KT 3200 -DZRA BKN005 13/13 Q1003

More Conditions Fewer Conditions

Pressure 29.62 in
Visibility -9999.0 miles
Clouds Mostly Cloudy 500 ft
Dew Point 55 °F
Humidity 100%
Rainfall 0.00 in
Snow Depth Not available.
UV 1 out of 12
Pollen Not available.
Air Quality Not available.
Flu Activity Not available.
METAR EGKK 020620Z 22014KT 3200 -DZRA BKN005 13/13 Q1003

More Conditions Fewer Conditions

10-Day Weather Forecast

Almanac

Astronomy

Jun. 02, 2015 Rise Set
Actual Time
Civil Twilight
Nautical Twilight
Astronomical Twilight
Moon
Length of Visible Light
Length of Day
Tomorrow will be .
, % of the Moon is Illuminated

Today's Extremes

Country Highs Country Lows

Community

WunderPhotos

Upload Photos

1,825,919 photos uploaded!

WunderBlogs® & News

Nearby

Air Quality

  Air Quality AQ Index Pollutant
Not available.

Snow Depth

Station Depth Elevation

Earthquake Activity

City Distance Mag. Time & Date
Minimum magnitude displayed is 2.5.

Coastal Water Temperatures

Place Temperature

Stations

Nearby Weather Stations

Station Location Temp. Windchill Dew Point Humidity Wind Precip. Elev Updated Type